Terminal Aerodrome Forecast
Issued by NWS Shreveport, LA

Home | Current Version | Previous Version | Text Only | Print | Product List | Glossary On
Versions: 1 2 3 4 5 6 7 8 9 10 11 12 13 14 15
000
FTUS44 KSHV 260800 AAA
TAFTYR
TAF AMD
KTYR 260814Z 2608/2706 16008KT P6SM OVC040
     FM261200 15010KT P6SM BKN015 OVC040
     FM270000 15011KT 4SM BR OVC007
     FM270300 15012KT 2SM -DZ BR OVC004=

USA.gov is the U.S. government's official web portal to all federal, state and local government web resources and services.